createdAt,value
2022-11-05T00:02:24.334Z,8.00
2022-11-05T00:05:10.602Z,7.80
2022-11-05T00:08:00.213Z,7.70
2022-11-05T00:10:31.752Z,7.70
2022-11-05T00:13:18.906Z,7.60
2022-11-05T00:16:05.416Z,7.50
2022-11-05T00:18:34.081Z,7.50
2022-11-05T00:21:02.852Z,7.30
2022-11-05T00:23:58.931Z,7.20
2022-11-05T00:26:27.548Z,7.10
2022-11-05T00:28:56.986Z,7.00
2022-11-05T00:31:25.615Z,6.90
2022-11-05T00:33:54.266Z,6.90
2022-11-05T00:36:23.018Z,6.80
2022-11-05T00:38:53.015Z,6.80
2022-11-05T00:41:21.598Z,6.90
2022-11-05T00:44:07.645Z,6.90
2022-11-05T00:46:36.233Z,6.90
2022-11-05T00:49:22.361Z,6.80
2022-11-05T00:52:11.148Z,6.80
2022-11-05T00:54:41.279Z,6.70
2022-11-05T00:57:10.098Z,6.60
2022-11-05T00:59:38.725Z,6.60
2022-11-05T01:02:07.618Z,6.50
2022-11-05T01:04:36.306Z,6.50
2022-11-05T01:07:04.931Z,6.50
2022-11-05T01:09:33.768Z,6.40
2022-11-05T01:12:03.768Z,6.30
2022-11-05T01:14:32.345Z,6.20
2022-11-05T01:17:00.912Z,6.20
2022-11-05T01:19:29.703Z,6.20
2022-11-05T01:21:58.354Z,6.20
2022-11-05T01:24:27.219Z,6.20
2022-11-05T01:26:55.886Z,6.20
2022-11-05T01:29:25.945Z,6.10
2022-11-05T01:31:54.544Z,6.10
2022-11-05T01:34:23.261Z,6.00
2022-11-05T01:36:52.101Z,6.00
2022-11-05T01:39:20.738Z,6.00
2022-11-05T01:41:49.453Z,5.90
2022-11-05T01:44:57.941Z,5.90
2022-11-05T01:47:39.356Z,5.90
2022-11-05T01:50:28.306Z,5.90
2022-11-05T01:53:03.916Z,5.80
2022-11-05T01:55:36.692Z,5.80
2022-11-05T01:58:08.560Z,5.80
2022-11-05T02:00:40.622Z,5.80
2022-11-05T02:03:10.317Z,5.70
2022-11-05T02:05:42.120Z,5.70
2022-11-05T02:08:16.055Z,5.70
2022-11-05T02:10:46.594Z,5.70
2022-11-05T02:13:16.868Z,5.70
2022-11-05T02:15:58.256Z,5.60
2022-11-05T02:18:39.877Z,5.60
2022-11-05T02:21:35.253Z,5.60
2022-11-05T02:24:44.664Z,5.50
2022-11-05T02:27:22.283Z,5.50
2022-11-05T02:30:08.704Z,5.40
2022-11-05T02:32:54.201Z,5.30
2022-11-05T02:35:34.294Z,5.20
2022-11-05T02:38:11.241Z,5.30
2022-11-05T02:40:51.092Z,5.30
2022-11-05T02:43:27.058Z,5.30
2022-11-05T02:46:07.463Z,5.30
2022-11-05T02:48:49.536Z,5.30
2022-11-05T02:51:25.623Z,5.40
2022-11-05T02:53:59.603Z,5.30
2022-11-05T02:56:34.003Z,5.40
2022-11-05T02:59:02.671Z,5.30
2022-11-05T03:01:31.483Z,5.30
2022-11-05T03:04:06.459Z,5.20
2022-11-05T03:06:54.659Z,5.20
2022-11-05T03:10:00.929Z,5.10
2022-11-05T03:12:41.287Z,5.10
2022-11-05T03:15:21.234Z,5.10
2022-11-05T03:18:00.444Z,5.10
2022-11-05T03:20:35.584Z,5.20
2022-11-05T03:23:10.826Z,5.20
2022-11-05T03:25:45.381Z,5.30
2022-11-05T03:28:16.112Z,5.30
2022-11-05T03:30:46.063Z,5.30
2022-11-05T03:33:20.351Z,5.40
2022-11-05T03:35:55.816Z,5.30
2022-11-05T03:38:29.246Z,5.30
2022-11-05T03:41:01.527Z,5.30
2022-11-05T03:43:36.029Z,5.30
2022-11-05T03:46:11.438Z,5.30
2022-11-05T03:48:46.055Z,5.30
2022-11-05T03:51:24.572Z,5.30
2022-11-05T03:53:58.780Z,5.30
2022-11-05T03:56:32.131Z,5.40
2022-11-05T03:59:02.827Z,5.40
2022-11-05T04:01:32.466Z,5.30
2022-11-05T04:04:01.298Z,5.30
2022-11-05T04:06:48.576Z,5.30
2022-11-05T04:09:34.718Z,5.20
2022-11-05T04:12:21.176Z,5.10
2022-11-05T04:14:49.923Z,5.00
2022-11-05T04:17:17.625Z,5.00
2022-11-05T04:20:04.664Z,4.90
2022-11-05T04:22:55.949Z,4.80
2022-11-05T04:25:24.800Z,4.80
2022-11-05T04:27:53.497Z,4.80
2022-11-05T04:30:26.461Z,4.80
2022-11-05T04:33:03.219Z,4.90
2022-11-05T04:35:34.053Z,4.80
2022-11-05T04:38:06.266Z,4.80
2022-11-05T04:40:35.218Z,4.80
2022-11-05T04:43:04.312Z,4.80
2022-11-05T04:45:34.484Z,4.80
2022-11-05T04:48:03.924Z,4.70
2022-11-05T04:50:33.192Z,4.80
2022-11-05T04:53:03.319Z,4.90
2022-11-05T04:55:31.937Z,4.80
2022-11-05T04:58:00.751Z,4.80
2022-11-05T05:00:29.484Z,4.80
2022-11-05T05:02:58.151Z,4.70
2022-11-05T05:05:27.017Z,4.60
2022-11-05T05:07:55.768Z,4.50
2022-11-05T05:10:32.825Z,4.40
2022-11-05T05:13:03.092Z,4.50
2022-11-05T05:15:34.132Z,4.40
2022-11-05T05:18:02.809Z,4.50
2022-11-05T05:20:53.112Z,4.60
2022-11-05T05:23:32.588Z,4.60
2022-11-05T05:26:02.754Z,4.70
2022-11-05T05:28:35.581Z,4.70
2022-11-05T05:31:04.539Z,4.80
2022-11-05T05:33:33.215Z,4.90
2022-11-05T05:36:08.430Z,4.90
2022-11-05T05:38:40.279Z,4.90
2022-11-05T05:41:10.309Z,5.00
2022-11-05T05:43:39.059Z,5.10
2022-11-05T05:46:09.724Z,5.10
2022-11-05T05:48:38.520Z,5.10
2022-11-05T05:51:09.823Z,5.10
2022-11-05T05:53:42.363Z,5.20
2022-11-05T05:56:15.104Z,5.10
2022-11-05T05:58:44.175Z,5.10
2022-11-05T06:01:19.395Z,5.10
2022-11-05T06:03:49.896Z,5.00
2022-11-05T06:06:21.111Z,5.00
2022-11-05T06:08:50.378Z,5.00
2022-11-05T06:11:20.345Z,5.00
2022-11-05T06:13:48.996Z,5.00
2022-11-05T06:16:19.616Z,5.00
2022-11-05T06:18:48.715Z,5.00
2022-11-05T06:21:19.036Z,4.90
2022-11-05T06:23:48.420Z,4.90
2022-11-05T06:26:20.381Z,4.90
2022-11-05T06:28:49.048Z,4.90
2022-11-05T06:31:18.545Z,4.90
2022-11-05T06:33:47.876Z,4.80
2022-11-05T06:36:18.537Z,4.80
2022-11-05T06:38:47.425Z,4.80
2022-11-05T06:41:16.099Z,4.90
2022-11-05T06:43:46.259Z,4.80
2022-11-05T06:46:15.615Z,4.80
2022-11-05T06:48:44.640Z,4.90
2022-11-05T06:51:14.583Z,4.90
2022-11-05T06:53:43.983Z,4.80
2022-11-05T06:56:13.019Z,4.90
2022-11-05T06:58:41.996Z,4.90
2022-11-05T07:01:12.464Z,5.00
2022-11-05T07:03:41.678Z,5.00
2022-11-05T07:06:10.382Z,5.00
2022-11-05T07:08:39.532Z,5.10
2022-11-05T07:11:08.326Z,5.10
2022-11-05T07:13:36.953Z,5.20
2022-11-05T07:16:06.494Z,5.20
2022-11-05T07:18:36.887Z,5.20
2022-11-05T07:21:06.179Z,5.20
2022-11-05T07:23:34.739Z,5.30
2022-11-05T07:26:03.404Z,5.30
2022-11-05T07:28:32.019Z,5.30
2022-11-05T07:31:00.751Z,5.40
2022-11-05T07:33:35.265Z,5.50
2022-11-05T07:36:07.198Z,5.50
2022-11-05T07:38:35.969Z,5.50
2022-11-05T07:41:04.739Z,5.60
2022-11-05T07:43:33.555Z,5.60
2022-11-05T07:46:02.293Z,5.70
2022-11-05T07:48:31.079Z,5.90
2022-11-05T07:50:59.927Z,5.90
2022-11-05T07:53:30.054Z,6.00
2022-11-05T07:55:59.059Z,6.10
2022-11-05T07:58:27.981Z,6.30
2022-11-05T08:00:58.000Z,6.40
2022-11-05T08:03:27.004Z,6.30
2022-11-05T08:05:56.082Z,6.50
2022-11-05T08:08:24.962Z,6.50
2022-11-05T08:10:54.922Z,6.50
2022-11-05T08:13:23.705Z,6.60
2022-11-05T08:15:52.606Z,6.70
2022-11-05T08:18:21.293Z,6.70
2022-11-05T08:20:49.851Z,6.70
2022-11-05T08:23:18.601Z,6.80
2022-11-05T08:25:47.246Z,6.90
2022-11-05T08:28:17.483Z,7.00
2022-11-05T08:30:53.646Z,7.00
2022-11-05T08:33:22.834Z,7.10
2022-11-05T08:35:52.004Z,7.10
2022-11-05T08:38:21.735Z,7.20
2022-11-05T08:40:57.638Z,7.40
2022-11-05T08:43:27.808Z,7.40
2022-11-05T08:45:56.503Z,7.40
2022-11-05T08:48:25.301Z,7.60
2022-11-05T08:50:53.940Z,7.60
2022-11-05T08:53:22.623Z,7.60
2022-11-05T08:55:51.707Z,7.60
2022-11-05T08:58:20.930Z,7.60
2022-11-05T09:00:51.435Z,7.80
2022-11-05T09:03:20.616Z,7.80
2022-11-05T09:05:49.232Z,7.90
2022-11-05T09:08:18.984Z,8.00
2022-11-05T09:10:49.828Z,8.10
2022-11-05T09:13:20.031Z,8.10
2022-11-05T09:15:51.158Z,8.10
2022-11-05T09:18:21.228Z,8.20
2022-11-05T09:20:49.799Z,8.30
2022-11-05T09:23:18.634Z,8.30
2022-11-05T09:25:47.316Z,8.40
2022-11-05T09:28:18.455Z,8.50
2022-11-05T09:30:49.073Z,8.70
2022-11-05T09:33:21.278Z,8.80
2022-11-05T09:35:50.100Z,8.90
2022-11-05T09:38:19.200Z,9.00
2022-11-05T09:40:55.710Z,9.10
2022-11-05T09:43:31.686Z,9.30
2022-11-05T09:46:05.928Z,9.40
2022-11-05T09:48:37.385Z,9.40
2022-11-05T09:51:07.466Z,9.50
2022-11-05T09:53:40.949Z,9.60
2022-11-05T09:56:21.278Z,9.80
2022-11-05T09:58:53.002Z,9.90
2022-11-05T10:01:25.900Z,10.00
2022-11-05T10:03:59.365Z,10.10
2022-11-05T10:06:29.643Z,10.30
2022-11-05T10:09:07.959Z,10.40
2022-11-05T10:11:41.529Z,10.50
2022-11-05T10:14:18.002Z,10.60
2022-11-05T10:16:52.675Z,10.70
2022-11-05T10:19:26.221Z,10.80
2022-11-05T10:22:06.984Z,10.80
2022-11-05T10:24:36.211Z,10.90
2022-11-05T10:27:06.375Z,10.90
2022-11-05T10:29:36.543Z,10.80
2022-11-05T10:32:08.857Z,10.90
2022-11-05T10:34:40.241Z,10.80
2022-11-05T10:37:09.882Z,10.90
2022-11-05T10:39:38.787Z,10.90
2022-11-05T10:42:31.770Z,11.10
2022-11-05T10:45:09.261Z,11.20
2022-11-05T10:47:50.142Z,11.30
2022-11-05T10:50:22.667Z,11.30
2022-11-05T10:52:59.942Z,11.40
2022-11-05T10:55:31.848Z,11.40
2022-11-05T10:58:13.122Z,11.40
2022-11-05T11:00:42.216Z,11.50
2022-11-05T11:03:38.661Z,11.50
2022-11-05T11:06:19.508Z,11.50
2022-11-05T11:08:49.921Z,11.50
2022-11-05T11:11:33.430Z,11.50
2022-11-05T11:14:05.965Z,11.60
2022-11-05T11:16:37.994Z,11.60
2022-11-05T11:19:25.591Z,11.70
2022-11-05T11:22:20.917Z,11.70
2022-11-05T11:24:51.495Z,11.70
2022-11-05T11:27:25.818Z,11.80
2022-11-05T11:29:59.774Z,11.80
2022-11-05T11:32:34.011Z,11.70
2022-11-05T11:35:03.659Z,11.80
2022-11-05T11:37:37.316Z,11.80
2022-11-05T11:40:16.479Z,11.90
2022-11-05T11:42:48.242Z,11.80
2022-11-05T11:45:19.728Z,11.90
2022-11-05T11:47:50.922Z,11.90
2022-11-05T11:50:39.755Z,11.90
2022-11-05T11:53:30.391Z,11.90
2022-11-05T11:56:15.586Z,11.90
2022-11-05T11:58:47.046Z,11.90
2022-11-05T12:01:53.108Z,12.00
2022-11-05T12:04:33.939Z,12.00
2022-11-05T12:07:18.175Z,11.90
2022-11-05T12:10:16.008Z,12.00
2022-11-05T12:12:53.315Z,11.90
2022-11-05T12:15:35.884Z,11.90
2022-11-05T12:18:06.978Z,11.90
2022-11-05T12:21:03.035Z,11.90
2022-11-05T12:23:48.821Z,11.90
2022-11-05T12:26:27.822Z,11.80
2022-11-05T12:29:19.560Z,11.70
2022-11-05T12:32:02.195Z,11.70
2022-11-05T12:34:46.734Z,11.60
2022-11-05T12:37:29.251Z,11.60
2022-11-05T12:40:23.733Z,11.60
2022-11-05T12:43:07.748Z,11.60
2022-11-05T12:45:48.290Z,11.70
2022-11-05T12:48:47.713Z,11.70
2022-11-05T12:51:31.901Z,11.60
2022-11-05T12:54:16.372Z,11.70
2022-11-05T12:56:48.232Z,11.80
2022-11-05T12:59:24.137Z,11.80
2022-11-05T13:01:57.568Z,11.80
2022-11-05T13:04:35.633Z,11.80
2022-11-05T13:07:07.686Z,11.80
2022-11-05T13:09:40.992Z,11.80
2022-11-05T13:12:13.175Z,11.80
2022-11-05T13:14:48.547Z,11.80
2022-11-05T13:17:20.947Z,11.80
2022-11-05T13:19:55.214Z,11.80
2022-11-05T13:22:35.633Z,11.80
2022-11-05T13:25:11.415Z,11.80
2022-11-05T13:27:56.185Z,11.80
2022-11-05T13:30:27.680Z,11.80
2022-11-05T13:33:01.953Z,11.80
2022-11-05T13:35:35.347Z,11.70
2022-11-05T13:38:27.341Z,11.70
2022-11-05T13:41:07.666Z,11.70
2022-11-05T13:43:50.563Z,11.60
2022-11-05T13:46:45.871Z,11.60
2022-11-05T13:49:36.144Z,11.60
2022-11-05T13:52:24.570Z,11.60
2022-11-05T13:55:19.306Z,11.50
2022-11-05T13:58:30.248Z,11.50
2022-11-05T14:01:11.019Z,11.50
2022-11-05T14:03:47.871Z,11.40
2022-11-05T14:06:25.930Z,11.40
2022-11-05T14:08:58.558Z,11.40
2022-11-05T14:11:30.861Z,11.30
2022-11-05T14:14:02.599Z,11.30
2022-11-05T14:16:51.781Z,11.30
2022-11-05T14:19:50.671Z,11.30
2022-11-05T14:22:39.868Z,11.20
2022-11-05T14:25:45.724Z,11.20
2022-11-05T14:28:44.263Z,11.30
2022-11-05T14:31:54.523Z,11.30
2022-11-05T14:34:40.406Z,11.30
2022-11-05T14:37:29.234Z,11.30
2022-11-05T14:40:02.674Z,11.20
2022-11-05T14:42:32.539Z,11.30
2022-11-05T14:45:05.470Z,11.30
2022-11-05T14:47:37.063Z,11.30
2022-11-05T14:50:13.012Z,11.30
2022-11-05T14:52:53.034Z,11.30
2022-11-05T14:55:29.424Z,11.20
2022-11-05T14:58:21.308Z,11.10
2022-11-05T15:00:50.742Z,11.10
2022-11-05T15:04:02.223Z,11.00
2022-11-05T15:06:33.918Z,10.90
2022-11-05T15:09:20.305Z,10.70
2022-11-05T15:12:09.166Z,10.70
2022-11-05T15:14:42.875Z,10.60
2022-11-05T15:17:19.630Z,10.60
2022-11-05T15:19:48.848Z,10.50
2022-11-05T15:22:31.617Z,10.40
2022-11-05T15:25:02.041Z,10.40
2022-11-05T15:27:45.632Z,10.40
2022-11-05T15:30:19.074Z,10.40
2022-11-05T15:32:48.474Z,10.40
2022-11-05T15:35:23.529Z,10.40
2022-11-05T15:37:58.800Z,10.40
2022-11-05T15:40:34.112Z,10.40
2022-11-05T15:43:20.885Z,10.30
2022-11-05T15:46:03.988Z,10.30
2022-11-05T15:48:33.195Z,10.30
2022-11-05T15:51:01.937Z,10.30
2022-11-05T15:54:08.297Z,10.20
2022-11-05T15:56:30.775Z,10.20
2022-11-05T15:59:02.770Z,10.20
2022-11-05T16:01:34.573Z,10.10
2022-11-05T16:04:20.262Z,10.10
2022-11-05T16:06:51.736Z,10.10
2022-11-05T16:09:23.341Z,10.20
2022-11-05T16:12:14.114Z,10.20
2022-11-05T16:14:43.903Z,10.10
2022-11-05T16:17:20.323Z,10.20
2022-11-05T16:19:49.800Z,10.10
2022-11-05T16:22:19.307Z,10.10
2022-11-05T16:24:48.153Z,10.10
2022-11-05T16:27:20.397Z,10.10
2022-11-05T16:29:52.323Z,10.10
2022-11-05T16:32:29.715Z,10.10
2022-11-05T16:35:00.518Z,10.10
2022-11-05T16:37:31.042Z,10.10
2022-11-05T16:39:59.770Z,10.10
2022-11-05T16:42:48.769Z,10.10
2022-11-05T16:45:19.327Z,10.10
2022-11-05T16:47:48.790Z,10.10
2022-11-05T16:50:23.769Z,10.10
2022-11-05T16:52:52.644Z,10.10
2022-11-05T16:55:21.931Z,10.10
2022-11-05T16:57:54.487Z,10.10
2022-11-05T17:00:25.070Z,10.10
2022-11-05T17:02:53.913Z,10.00
2022-11-05T17:05:26.126Z,10.00
2022-11-05T17:07:55.313Z,10.00
2022-11-05T17:10:25.697Z,10.00
2022-11-05T17:12:55.911Z,10.10
2022-11-05T17:15:27.662Z,10.10
2022-11-05T17:17:57.568Z,10.10
2022-11-05T17:20:36.742Z,10.10
2022-11-05T17:23:09.408Z,10.00
2022-11-05T17:25:38.986Z,10.00
2022-11-05T17:28:10.418Z,10.00
2022-11-05T17:30:41.656Z,10.00
2022-11-05T17:33:12.320Z,10.00
2022-11-05T17:35:41.988Z,10.00
2022-11-05T17:38:11.158Z,10.00
2022-11-05T17:40:40.627Z,9.90
2022-11-05T17:43:11.259Z,9.90
2022-11-05T17:45:44.269Z,9.90
2022-11-05T17:48:14.105Z,9.90
2022-11-05T17:50:43.219Z,9.90
2022-11-05T17:53:13.266Z,9.90
2022-11-05T17:55:46.314Z,9.90
2022-11-05T17:58:19.261Z,9.90
2022-11-05T18:00:48.913Z,9.90
2022-11-05T18:03:17.537Z,9.90
2022-11-05T18:05:46.398Z,9.90
2022-11-05T18:08:15.715Z,9.90
2022-11-05T18:10:47.820Z,9.90
2022-11-05T18:13:16.636Z,9.90
2022-11-05T18:15:47.052Z,9.90
2022-11-05T18:18:16.056Z,9.90
2022-11-05T18:20:47.824Z,9.90
2022-11-05T18:23:16.576Z,10.00
2022-11-05T18:25:45.940Z,10.00
2022-11-05T18:28:15.272Z,10.00
2022-11-05T18:30:44.441Z,10.00
2022-11-05T18:33:17.833Z,10.00
2022-11-05T18:35:47.030Z,10.00
2022-11-05T18:38:15.859Z,10.00
2022-11-05T18:40:45.288Z,10.00
2022-11-05T18:43:14.657Z,10.00
2022-11-05T18:45:44.358Z,10.10
2022-11-05T18:48:15.333Z,10.00
2022-11-05T18:50:44.477Z,10.10
2022-11-05T18:53:13.137Z,10.10
2022-11-05T18:55:42.130Z,10.00
2022-11-05T18:58:11.074Z,10.00
2022-11-05T19:00:40.578Z,10.00
2022-11-05T19:03:09.803Z,10.00
2022-11-05T19:05:39.969Z,10.00
2022-11-05T19:08:08.693Z,10.00
2022-11-05T19:10:40.387Z,10.00
2022-11-05T19:13:09.061Z,10.00
2022-11-05T19:15:37.755Z,10.00
2022-11-05T19:18:06.666Z,10.00
2022-11-05T19:20:37.970Z,10.00
2022-11-05T19:23:08.305Z,10.00
2022-11-05T19:25:38.669Z,10.00
2022-11-05T19:28:07.336Z,10.00
2022-11-05T19:30:36.173Z,10.00
2022-11-05T19:33:04.918Z,9.90
2022-11-05T19:35:38.362Z,10.00
2022-11-05T19:38:11.533Z,10.00
2022-11-05T19:40:40.347Z,10.00
2022-11-05T19:43:09.271Z,10.00
2022-11-05T19:45:44.528Z,10.00
2022-11-05T19:48:19.068Z,10.00
2022-11-05T19:50:48.852Z,10.00
2022-11-05T19:53:19.172Z,10.00
2022-11-05T19:55:47.807Z,10.00
2022-11-05T19:58:16.715Z,10.00
2022-11-05T20:00:48.391Z,10.00
2022-11-05T20:03:17.283Z,10.00
2022-11-05T20:05:45.917Z,10.00
2022-11-05T20:08:15.544Z,10.00
2022-11-05T20:10:48.571Z,10.00
2022-11-05T20:13:19.956Z,10.00
2022-11-05T20:15:49.472Z,10.00
2022-11-05T20:18:18.531Z,10.00
2022-11-05T20:20:47.774Z,10.10
2022-11-05T20:23:16.972Z,10.10
2022-11-05T20:25:49.901Z,10.10
2022-11-05T20:28:18.742Z,10.10
2022-11-05T20:30:47.618Z,10.00
2022-11-05T20:33:16.330Z,10.10
2022-11-05T20:35:49.525Z,10.10
2022-11-05T20:38:18.178Z,10.10
2022-11-05T20:40:46.750Z,10.10
2022-11-05T20:43:17.228Z,10.10
2022-11-05T20:45:46.184Z,10.10
2022-11-05T20:48:15.323Z,10.10
2022-11-05T20:50:45.412Z,10.00
2022-11-05T20:53:15.594Z,10.10
2022-11-05T20:55:48.327Z,10.10
2022-11-05T20:58:18.723Z,10.00
2022-11-05T21:00:53.466Z,10.10
2022-11-05T21:03:22.511Z,10.00
2022-11-05T21:05:54.599Z,10.00
2022-11-05T21:08:24.013Z,10.00
2022-11-05T21:10:52.689Z,10.00
2022-11-05T21:13:23.292Z,10.00
2022-11-05T21:15:53.649Z,9.90
2022-11-05T21:18:24.621Z,9.90
2022-11-05T21:20:54.144Z,9.90
2022-11-05T21:23:23.091Z,9.90
2022-11-05T21:25:52.147Z,9.90
2022-11-05T21:28:22.208Z,9.90
2022-11-05T21:30:50.932Z,9.90
2022-11-05T21:33:20.012Z,9.90
2022-11-05T21:35:49.672Z,9.90
2022-11-05T21:38:19.318Z,9.80
2022-11-05T21:40:48.315Z,9.80
2022-11-05T21:43:16.916Z,9.80
2022-11-05T21:45:50.236Z,9.90
2022-11-05T21:48:18.798Z,9.80
2022-11-05T21:51:10.130Z,9.80
2022-11-05T21:53:57.347Z,9.80
2022-11-05T21:56:45.573Z,9.80
2022-11-05T21:59:33.665Z,9.80
2022-11-05T22:02:04.319Z,9.70
2022-11-05T22:04:34.920Z,9.70
2022-11-05T22:07:04.039Z,9.70
2022-11-05T22:09:32.762Z,9.60
2022-11-05T22:12:01.976Z,9.60
2022-11-05T22:14:31.227Z,9.50
2022-11-05T22:17:00.134Z,9.40
2022-11-05T22:19:30.779Z,9.40
2022-11-05T22:21:59.552Z,9.50
2022-11-05T22:24:30.594Z,9.40
2022-11-05T22:26:59.962Z,9.40
2022-11-05T22:29:28.916Z,9.40
2022-11-05T22:31:57.609Z,9.40
2022-11-05T22:34:26.889Z,9.40
2022-11-05T22:36:57.233Z,9.40
2022-11-05T22:39:26.375Z,9.40
2022-11-05T22:41:55.655Z,9.40
2022-11-05T22:44:25.715Z,9.40
2022-11-05T22:46:54.720Z,9.50
2022-11-05T22:49:23.532Z,9.50
2022-11-05T22:51:52.313Z,9.40
2022-11-05T22:54:22.292Z,9.40
2022-11-05T22:56:52.624Z,9.40
2022-11-05T22:59:21.593Z,9.40
2022-11-05T23:01:50.587Z,9.30
2022-11-05T23:04:19.289Z,9.40
2022-11-05T23:07:05.008Z,9.40
2022-11-05T23:10:08.706Z,9.40
2022-11-05T23:12:38.913Z,9.30
2022-11-05T23:15:09.171Z,9.30
2022-11-05T23:17:55.268Z,9.20
2022-11-05T23:20:42.586Z,9.20
2022-11-05T23:23:29.571Z,9.10
2022-11-05T23:26:00.405Z,9.10
2022-11-05T23:28:29.051Z,9.00
2022-11-05T23:31:15.178Z,9.00
2022-11-05T23:33:44.452Z,9.00
2022-11-05T23:36:31.632Z,9.00
2022-11-05T23:39:00.228Z,9.00
2022-11-05T23:41:47.822Z,9.00
2022-11-05T23:44:33.775Z,9.00
2022-11-05T23:47:19.890Z,9.00
2022-11-05T23:49:48.570Z,9.00
2022-11-05T23:52:17.149Z,9.00
2022-11-05T23:54:46.848Z,9.00
2022-11-05T23:57:17.198Z,9.00
2022-11-05T23:59:45.828Z,9.00
